Time;durP1;ratioP1;P1;durP2;ratioP2;P2;SDS_P1;SDS_P2;PMS_P1;PMS_P2;Temp;Humidity;BMP_temperature;BMP_pressure;BME280_temperature;BME280_humidity;BME280_pressure;Samples;Min_cycle;Max_cycle;Signal;HPM_P1;HPM_P2
2022/03/20 00:00:44;;;;;;;0.70;0.40;;;6.00;99.90;;;;;;5031152;28;20480;-70
2022/03/20 00:03:12;;;;;;;1.00;0.73;;;6.00;99.90;;;;;;5041859;28;20833;-70
2022/03/20 00:05:42;;;;;;;11.83;2.00;;;5.90;99.90;;;;;;5030436;28;20453;-71
2022/03/20 00:08:11;;;;;;;1.53;1.30;;;5.90;99.90;;;;;;5030557;28;20582;-69
2022/03/20 00:10:44;;;;;;;0.60;0.40;;;5.90;99.90;;;;;;5031074;28;21014;-69
2022/03/20 00:13:15;;;;;;;3.27;1.77;;;5.90;99.90;;;;;;5030454;28;20453;-70
2022/03/20 00:15:44;;;;;;;0.80;0.80;;;5.90;99.90;;;;;;5024959;28;20959;-69
2022/03/20 00:18:13;;;;;;;4.10;1.70;;;5.90;99.90;;;;;;5036874;28;20440;-70
2022/03/20 00:20:43;;;;;;;0.60;0.20;;;6.00;99.90;;;;;;5030806;28;20849;-69
2022/03/20 00:23:13;;;;;;;1.30;0.97;;;6.00;99.90;;;;;;5031179;28;20811;-71
2022/03/20 00:25:44;;;;;;;1.13;1.03;;;5.90;99.90;;;;;;5033978;28;20446;-71
2022/03/20 00:28:13;;;;;;;0.93;0.83;;;5.90;99.90;;;;;;5030109;28;20568;-69
2022/03/20 00:30:41;;;;;;;1.00;0.77;;;5.90;99.90;;;;;;5031370;28;20467;-71
2022/03/20 00:33:10;;;;;;;5.30;2.87;;;6.00;99.90;;;;;;5031373;28;20935;-70
2022/03/20 00:35:38;;;;;;;1.77;1.67;;;;;;;;;;5030250;28;20448;-71
2022/03/20 00:38:08;;;;;;;3.70;3.40;;;5.90;99.90;;;;;;5030885;28;20520;-70
2022/03/20 00:40:36;;;;;;;4.97;1.70;;;6.00;99.90;;;;;;5031212;28;20797;-70
2022/03/20 00:43:07;;;;;;;1.27;1.20;;;6.00;99.90;;;;;;5030601;28;21083;-69
2022/03/20 00:45:36;;;;;;;0.60;0.20;;;6.00;99.90;;;;;;5030423;28;20450;-68
2022/03/20 00:48:04;;;;;;;1.90;0.83;;;6.10;99.90;;;;;;5030531;28;20528;-69
2022/03/20 00:50:33;;;;;;;3.23;1.80;;;6.10;99.90;;;;;;5030416;28;20474;-68
2022/03/20 00:53:01;;;;;;;2.50;2.30;;;6.10;99.90;;;;;;5030547;28;20818;-70
2022/03/20 00:55:30;;;;;;;6.27;5.73;;;6.20;99.90;;;;;;5030140;28;20793;-70
2022/03/20 00:57:58;;;;;;;2.20;1.07;;;6.20;99.90;;;;;;5029447;28;20451;-69
2022/03/20 01:00:27;;;;;;;0.57;0.17;;;6.20;99.90;;;;;;5030836;28;20900;-69
2022/03/20 01:02:56;;;;;;;0.60;0.20;;;6.20;99.90;;;;;;5030685;28;21026;-68
2022/03/20 01:05:24;;;;;;;0.60;0.10;;;6.30;99.90;;;;;;5029856;28;20452;-69
2022/03/20 01:07:51;;;;;;;0.50;0.20;;;6.30;99.90;;;;;;5029976;28;20556;-69
2022/03/20 01:10:19;;;;;;;11.70;3.40;;;5.20;99.90;;;;;;5031089;28;20464;-70
2022/03/20 01:12:47;;;;;;;1.37;1.10;;;6.30;99.90;;;;;;5029465;28;20449;-69
2022/03/20 01:15:16;;;;;;;0.60;0.30;;;6.30;99.90;;;;;;5029690;28;20457;-69
2022/03/20 01:17:55;;;;;;;0.60;0.20;;;6.30;99.90;;;;;;5030390;28;20451;-70
2022/03/20 01:20:23;;;;;;;0.60;0.10;;;6.40;99.90;;;;;;5033411;28;20483;-69
2022/03/20 01:22:51;;;;;;;0.80;0.40;;;6.40;99.90;;;;;;5034247;28;20449;-69
2022/03/20 01:25:20;;;;;;;3.20;2.90;;;6.40;99.90;;;;;;5041572;28;20441;-69
2022/03/20 01:27:48;;;;;;;0.50;0.10;;;6.40;99.90;;;;;;5032272;28;20451;-69
2022/03/20 01:30:16;;;;;;;1.70;1.60;;;6.40;99.90;;;;;;5033485;28;20472;-69
2022/03/20 01:32:44;;;;;;;2.93;2.70;;;6.40;99.90;;;;;;5034002;28;20449;-69
2022/03/20 01:35:14;;;;;;;0.60;0.20;;;6.40;99.90;;;;;;5032930;28;20449;-69
2022/03/20 01:37:42;;;;;;;0.60;0.50;;;6.40;99.90;;;;;;5033109;28;21096;-69
2022/03/20 01:40:10;;;;;;;0.50;0.10;;;6.40;99.90;;;;;;5037474;28;20468;-69
2022/03/20 01:42:39;;;;;;;0.60;0.23;;;6.40;99.90;;;;;;5038040;28;20446;-69
2022/03/20 01:45:16;;;;;;;0.70;0.47;;;6.40;99.90;;;;;;5038956;28;20471;-69
2022/03/20 01:47:47;;;;;;;0.60;0.20;;;6.50;99.90;;;;;;5048601;28;20444;-68
2022/03/20 01:50:17;;;;;;;0.60;0.10;;;6.40;99.90;;;;;;5053490;28;20522;-69
2022/03/20 01:52:45;;;;;;;0.50;0.10;;;6.50;99.90;;;;;;5054467;28;20452;-69
2022/03/20 01:55:14;;;;;;;0.50;0.10;;;6.40;99.90;;;;;;5053784;28;20452;-69
2022/03/20 01:57:44;;;;;;;0.50;0.10;;;6.40;99.90;;;;;;5034532;28;20510;-69
2022/03/20 02:00:14;;;;;;;1.80;1.13;;;6.40;99.90;;;;;;5033392;28;20995;-69
2022/03/20 02:02:42;;;;;;;0.53;0.30;;;6.40;99.90;;;;;;5032921;28;20447;-70
2022/03/20 02:05:11;;;;;;;0.50;0.10;;;6.40;99.90;;;;;;5033258;28;20485;-70
2022/03/20 02:07:42;;;;;;;0.50;0.10;;;6.40;99.90;;;;;;5032810;28;20453;-69
2022/03/20 02:10:11;;;;;;;0.50;0.10;;;6.40;99.90;;;;;;5032388;28;21329;-68
2022/03/20 02:12:40;;;;;;;3.83;3.70;;;6.40;99.90;;;;;;5033310;28;20532;-70
2022/03/20 02:15:10;;;;;;;0.50;0.20;;;6.40;99.90;;;;;;5033650;28;20445;-69
2022/03/20 02:17:40;;;;;;;4.43;3.93;;;6.40;99.90;;;;;;5032392;28;20449;-69
2022/03/20 02:20:10;;;;;;;14.90;14.40;;;6.40;99.90;;;;;;5032675;28;20887;-70
2022/03/20 02:22:44;;;;;;;2.00;1.90;;;6.40;99.90;;;;;;5031265;28;20474;-70
2022/03/20 02:25:15;;;;;;;0.90;0.53;;;6.40;99.90;;;;;;5000023;23;1105592;-73
2022/03/20 02:27:44;;;;;;;0.60;0.33;;;6.50;99.90;;;;;;5016833;28;20304;-75
2022/03/20 02:30:16;;;;;;;0.60;0.20;;;6.40;99.90;;;;;;5014422;28;20483;-74
2022/03/20 02:32:45;;;;;;;0.60;0.10;;;6.40;99.90;;;;;;5023815;28;20437;-74
2022/03/20 02:35:16;;;;;;;0.60;0.30;;;6.40;99.90;;;;;;5014074;28;21023;-73
2022/03/20 02:37:47;;;;;;;2.57;2.37;;;6.30;99.90;;;;;;5011864;28;20457;-74
2022/03/20 02:40:17;;;;;;;3.40;2.20;;;6.30;99.90;;;;;;5012367;28;20924;-74
2022/03/20 02:42:48;;;;;;;0.50;0.10;;;6.40;99.90;;;;;;5021218;28;20438;-73
2022/03/20 02:45:19;;;;;;;2.90;1.63;;;6.40;99.90;;;;;;5012846;28;20502;-74
2022/03/20 02:47:48;;;;;;;0.90;0.40;;;6.40;99.90;;;;;;4998964;28;20462;-72
2022/03/20 02:50:18;;;;;;;1.70;0.60;;;6.30;99.90;;;;;;4993416;28;20508;-74
2022/03/20 02:52:51;;;;;;;0.50;0.10;;;6.30;99.90;;;;;;4993573;28;20451;-73
2022/03/20 02:55:21;;;;;;;0.83;0.83;;;6.40;99.90;;;;;;4993415;28;20520;-74
2022/03/20 02:57:50;;;;;;;0.60;0.30;;;6.30;99.90;;;;;;5004742;28;20445;-74
2022/03/20 03:00:21;;;;;;;0.53;0.20;;;6.30;99.90;;;;;;5020561;28;21191;-73
2022/03/20 03:02:51;;;;;;;0.63;0.37;;;6.30;99.90;;;;;;5009825;28;20789;-74
2022/03/20 03:05:21;;;;;;;0.60;0.40;;;6.30;99.90;;;;;;4992772;28;20476;-75
2022/03/20 03:10:59;;;;;;;0.50;0.10;;;6.30;99.90;;;;;;4992541;28;20483;-72
2022/03/20 03:13:29;;;;;;;0.50;0.10;;;6.30;99.90;;;;;;4996483;28;20458;-74
2022/03/20 03:15:58;;;;;;;1.17;1.07;;;6.30;99.90;;;;;;5012236;28;20457;-74
2022/03/20 03:18:26;;;;;;;0.50;0.13;;;6.40;99.90;;;;;;5012591;28;21015;-73
2022/03/20 03:20:54;;;;;;;0.50;0.10;;;6.40;99.90;;;;;;5013047;28;20541;-73
2022/03/20 03:23:26;;;;;;;4.73;4.43;;;6.40;99.90;;;;;;5009202;28;20487;-74
2022/03/20 03:25:55;;;;;;;0.50;0.10;;;6.30;99.90;;;;;;5014953;28;20589;-74
2022/03/20 03:28:28;;;;;;;0.60;0.40;;;6.40;99.90;;;;;;5033629;28;20474;-74
2022/03/20 03:30:56;;;;;;;1.37;0.97;;;6.30;99.90;;;;;;5024964;28;20479;-73
2022/03/20 03:33:24;;;;;;;0.70;0.47;;;6.30;99.90;;;;;;5012461;28;21021;-74
2022/03/20 03:35:53;;;;;;;0.60;0.10;;;6.30;99.90;;;;;;5013411;28;20512;-74
2022/03/20 03:38:25;;;;;;;0.53;0.10;;;6.30;99.90;;;;;;5013315;28;20450;-72
2022/03/20 03:40:54;;;;;;;1.60;1.50;;;6.30;99.90;;;;;;5011961;28;20453;-72
2022/03/20 03:43:23;;;;;;;4.07;3.87;;;6.30;99.90;;;;;;5010351;28;20567;-73
2022/03/20 03:45:53;;;;;;;0.60;0.20;;;6.20;99.90;;;;;;4994574;28;20508;-74
2022/03/20 03:48:21;;;;;;;0.60;0.20;;;6.20;99.90;;;;;;4994172;28;20530;-73
2022/03/20 03:50:52;;;;;;;0.50;0.10;;;6.10;99.90;;;;;;4993281;28;20911;-73
2022/03/20 03:53:20;;;;;;;0.60;0.10;;;6.10;99.90;;;;;;4995438;28;20826;-74
2022/03/20 03:55:49;;;;;;;0.50;0.10;;;6.10;99.90;;;;;;5012457;28;20505;-74
2022/03/20 03:58:17;;;;;;;0.50;0.10;;;6.10;99.90;;;;;;5013696;28;20547;-73
2022/03/20 04:00:46;;;;;;;6.40;5.93;;;6.10;99.90;;;;;;5013098;28;20473;-73
2022/03/20 04:03:14;;;;;;;1.00;0.80;;;6.10;99.90;;;;;;5009951;28;20456;-73
2022/03/20 04:05:42;;;;;;;3.13;3.03;;;6.10;99.90;;;;;;4993777;28;20801;-74
2022/03/20 04:08:10;;;;;;;0.50;0.10;;;6.10;99.90;;;;;;4992635;28;20450;-74
2022/03/20 04:10:38;;;;;;;0.63;0.40;;;6.10;99.90;;;;;;5009368;28;20867;-75
2022/03/20 04:13:08;;;;;;;0.60;0.37;;;6.10;99.90;;;;;;5014520;28;20441;-74
2022/03/20 04:15:36;;;;;;;0.60;0.10;;;6.10;99.90;;;;;;5012038;28;20455;-75
2022/03/20 04:18:05;;;;;;;4.87;2.40;;;6.20;99.90;;;;;;5011592;28;20959;-75
2022/03/20 04:20:33;;;;;;;0.60;0.20;;;6.20;99.90;;;;;;5011941;28;20962;-75
2022/03/20 04:25:46;;;;;;;0.60;0.33;;;6.30;99.90;;;;;;5021527;28;20487;-75
2022/03/20 04:28:17;;;;;;;0.50;0.10;;;6.30;99.90;;;;;;5031017;28;21010;-75
2022/03/20 04:30:45;;;;;;;0.57;0.27;;;6.30;99.90;;;;;;5030706;28;20497;-75
2022/03/20 04:33:15;;;;;;;0.50;0.20;;;7.70;99.90;;;;;;5016350;28;20450;-76
2022/03/20 04:35:44;;;;;;;0.57;0.27;;;6.30;99.90;;;;;;5011216;28;20477;-76
2022/03/20 04:38:12;;;;;;;0.60;0.20;;;6.30;99.90;;;;;;5010974;28;20880;-75
2022/03/20 04:40:39;;;;;;;3.33;3.23;;;6.30;99.90;;;;;;5014368;28;20522;-76
2022/03/20 04:43:07;;;;;;;1.10;0.77;;;6.30;99.90;;;;;;5002649;28;20461;-75
2022/03/20 04:45:37;;;;;;;1.70;1.23;;;6.30;99.90;;;;;;4996038;28;20474;-76
2022/03/20 04:59:07;;;;;;;0.50;0.10;;;6.30;99.90;;;;;;5014989;28;20457;-74
2022/03/20 05:01:37;;;;;;;0.53;0.20;;;6.30;99.90;;;;;;5016015;28;20543;-73
2022/03/20 05:04:06;;;;;;;0.50;0.10;;;6.30;99.90;;;;;;5005521;28;20532;-74
2022/03/20 05:06:34;;;;;;;0.60;0.10;;;6.30;99.90;;;;;;5034872;28;20560;-74
2022/03/20 05:14:29;;;;;;;0.50;0.10;;;6.30;99.90;;;;;;4996246;28;20462;-74
2022/03/20 05:17:13;;;;;;;0.50;0.20;;;6.30;99.90;;;;;;5000159;28;20449;-75
2022/03/20 05:19:42;;;;;;;0.50;0.20;;;6.30;99.90;;;;;;5024152;28;20490;-73
2022/03/20 05:22:11;;;;;;;0.50;0.10;;;6.40;99.90;;;;;;5039823;28;20461;-75
2022/03/20 05:24:40;;;;;;;0.50;0.10;;;6.40;99.90;;;;;;5019741;28;20472;-75
2022/03/20 05:27:09;;;;;;;3.33;2.67;;;6.40;99.90;;;;;;5017244;28;20825;-74
2022/03/20 05:29:38;;;;;;;22.30;12.10;;;6.50;99.90;;;;;;5016946;28;20471;-74
2022/03/20 05:32:09;;;;;;;0.50;0.10;;;6.50;99.90;;;;;;5016656;28;20507;-76
2022/03/20 05:34:37;;;;;;;0.50;0.10;;;6.60;99.90;;;;;;5016449;28;20546;-75
2022/03/20 05:37:07;;;;;;;4.27;4.03;;;6.60;99.90;;;;;;5014628;28;20457;-75
2022/03/20 05:39:35;;;;;;;0.73;0.73;;;6.60;99.90;;;;;;5015027;28;20956;-75
2022/03/20 05:42:03;;;;;;;0.53;0.20;;;6.70;99.90;;;;;;5015096;28;20940;-75
2022/03/20 05:44:32;;;;;;;0.60;0.10;;;6.60;99.90;;;;;;5018545;28;20995;-75
2022/03/20 05:47:02;;;;;;;1.53;0.93;;;6.60;99.90;;;;;;5018134;28;20486;-75
2022/03/20 05:49:31;;;;;;;0.50;0.10;;;6.60;99.90;;;;;;5015604;28;20466;-75
2022/03/20 05:52:00;;;;;;;0.50;0.10;;;6.50;99.90;;;;;;5015089;28;20485;-73
2022/03/20 05:54:28;;;;;;;0.50;0.10;;;6.70;99.90;;;;;;5014754;28;20448;-73
2022/03/20 05:59:41;;;;;;;2.87;2.67;;;;;;;;;;5014852;28;20452;-73
2022/03/20 06:02:09;;;;;;;0.50;0.10;;;6.70;99.90;;;;;;5014952;28;20536;-71
2022/03/20 06:04:39;;;;;;;0.50;0.10;;;6.60;99.90;;;;;;5013958;28;20549;-73
2022/03/20 06:07:08;;;;;;;0.50;0.10;;;6.70;99.90;;;;;;5005414;28;20621;-74
2022/03/20 06:09:37;;;;;;;0.50;0.10;;;6.70;99.90;;;;;;4994516;28;20456;-75
2022/03/20 06:12:08;;;;;;;0.60;0.10;;;6.70;99.90;;;;;;4994761;28;20489;-74
2022/03/20 06:14:36;;;;;;;0.60;0.30;;;6.70;99.90;;;;;;4994834;28;20512;-74
2022/03/20 06:17:05;;;;;;;0.60;0.10;;;;;;;;;;5002068;28;20553;-74
2022/03/20 06:19:35;;;;;;;0.50;0.10;;;6.70;99.90;;;;;;5021728;28;20511;-74
2022/03/20 06:22:05;;;;;;;0.50;0.10;;;6.70;99.90;;;;;;5014043;28;20439;-73
2022/03/20 06:24:33;;;;;;;0.50;0.10;;;6.80;99.90;;;;;;5014341;28;20927;-73
2022/03/20 06:27:03;;;;;;;0.60;0.10;;;6.80;99.90;;;;;;5019590;28;20534;-74
2022/03/20 06:29:31;;;;;;;0.50;0.10;;;6.80;99.90;;;;;;4993845;28;20455;-73
2022/03/20 06:31:59;;;;;;;0.60;0.20;;;6.90;99.90;;;;;;5014582;28;20594;-73
2022/03/20 06:34:27;;;;;;;0.50;0.10;;;6.90;99.90;;;;;;5021305;28;20442;-74
2022/03/20 06:36:57;;;;;;;0.50;0.10;;;6.90;99.90;;;;;;5012442;28;20512;-72
2022/03/20 06:39:26;;;;;;;0.50;0.10;;;7.10;99.90;;;;;;5013948;28;20548;-74
2022/03/20 06:41:55;;;;;;;0.50;0.10;;;7.10;99.90;;;;;;5014135;28;20447;-74
2022/03/20 06:44:24;;;;;;;0.60;0.10;;;7.20;99.90;;;;;;5013341;28;20445;-74
2022/03/20 06:46:54;;;;;;;0.53;0.10;;;7.20;99.90;;;;;;5020399;28;20485;-74
2022/03/20 06:49:23;;;;;;;0.60;0.30;;;7.30;99.90;;;;;;5013701;28;20507;-72
2022/03/20 06:51:51;;;;;;;0.60;0.10;;;7.20;99.90;;;;;;5011852;28;20488;-74
2022/03/20 06:54:19;;;;;;;0.50;0.10;;;7.20;99.90;;;;;;5013482;28;20449;-73
2022/03/20 06:56:48;;;;;;;0.60;0.10;;;7.20;99.90;;;;;;5012800;28;21004;-74
2022/03/20 06:59:18;;;;;;;0.50;0.10;;;7.30;99.90;;;;;;5012586;28;20463;-74
2022/03/20 07:01:47;;;;;;;0.60;0.10;;;7.30;99.90;;;;;;5014833;28;20504;-75
2022/03/20 07:04:17;;;;;;;0.50;0.10;;;7.30;99.90;;;;;;5018807;28;20447;-74
2022/03/20 07:06:45;;;;;;;0.60;0.10;;;7.30;99.90;;;;;;5016198;28;20451;-74
2022/03/20 07:09:13;;;;;;;0.50;0.10;;;7.40;99.90;;;;;;5016332;28;20468;-74
2022/03/20 07:11:41;;;;;;;0.60;0.10;;;7.40;99.90;;;;;;5015720;28;21163;-73
2022/03/20 07:14:10;;;;;;;0.50;0.10;;;7.40;99.90;;;;;;5014849;28;20450;-73
2022/03/20 07:16:38;;;;;;;0.60;0.10;;;7.50;99.90;;;;;;5014753;28;20479;-72
2022/03/20 07:19:07;;;;;;;0.60;0.10;;;7.50;99.90;;;;;;5015610;28;20458;-75
2022/03/20 07:21:35;;;;;;;0.60;0.10;;;7.50;99.90;;;;;;5014988;28;21145;-72
2022/03/20 07:24:04;;;;;;;0.60;0.10;;;7.60;99.90;;;;;;5024661;28;20521;-75
2022/03/20 07:29:31;;;;;;;0.60;0.10;;;7.60;99.90;;;;;;5012292;28;20454;-73
2022/03/20 07:32:02;;;;;;;1.47;1.27;;;7.70;99.90;;;;;;5014414;28;20481;-73
2022/03/20 07:34:31;;;;;;;0.80;0.67;;;8.00;99.90;;;;;;5014516;28;20459;-72
2022/03/20 07:36:59;;;;;;;0.60;0.33;;;8.00;99.90;;;;;;5014730;28;20443;-73
2022/03/20 07:39:28;;;;;;;0.60;0.10;;;8.30;99.90;;;;;;5014280;28;20649;-72
2022/03/20 07:41:56;;;;;;;0.60;0.10;;;8.30;99.90;;;;;;5013056;28;20514;-72
2022/03/20 07:44:26;;;;;;;0.60;0.30;;;8.40;99.90;;;;;;5010292;28;20538;-73
2022/03/20 07:46:54;;;;;;;0.60;0.40;;;8.40;99.90;;;;;;5010962;28;20463;-75
2022/03/20 07:49:23;;;;;;;0.70;0.57;;;8.40;99.90;;;;;;5011122;28;20450;-75
2022/03/20 07:51:53;;;;;;;0.60;0.20;;;8.40;99.90;;;;;;5011283;28;20474;-74
2022/03/20 07:54:21;;;;;;;0.60;0.30;;;8.50;99.90;;;;;;5011143;28;20528;-74
2022/03/20 07:56:49;;;;;;;0.60;0.10;;;8.50;99.90;;;;;;5009443;28;20451;-74
2022/03/20 07:59:17;;;;;;;0.60;0.10;;;8.50;99.90;;;;;;5020788;28;20544;-74
2022/03/20 08:01:46;;;;;;;0.60;0.10;;;8.50;99.90;;;;;;5019890;28;20535;-74
2022/03/20 08:04:16;;;;;;;0.93;0.93;;;8.70;99.90;;;;;;5015107;28;20450;-72
2022/03/20 08:06:44;;;;;;;0.60;0.10;;;8.70;99.90;;;;;;5022520;28;21278;-72
2022/03/20 08:09:12;;;;;;;2.50;0.83;;;8.80;99.90;;;;;;5025148;28;20463;-71
2022/03/20 08:11:40;;;;;;;0.60;0.20;;;8.80;99.90;;;;;;5015523;28;20470;-74
2022/03/20 08:14:08;;;;;;;0.60;0.10;;;8.80;99.90;;;;;;5012460;28;20741;-75
2022/03/20 08:16:38;;;;;;;2.30;2.20;;;9.00;99.90;;;;;;5015146;28;20463;-76
2022/03/20 08:19:09;;;;;;;0.60;0.10;;;9.00;99.90;;;;;;5013096;28;20474;-73
2022/03/20 08:21:38;;;;;;;0.60;0.10;;;9.20;99.90;;;;;;5011800;28;20431;-76
2022/03/20 08:24:07;;;;;;;0.60;0.10;;;9.30;99.90;;;;;;5012045;28;20449;-75
2022/03/20 08:26:35;;;;;;;0.60;0.10;;;9.30;99.90;;;;;;5011236;28;20476;-75
2022/03/20 08:29:04;;;;;;;0.60;0.10;;;9.40;99.90;;;;;;5010799;28;20439;-75
2022/03/20 08:31:33;;;;;;;0.60;0.10;;;9.50;99.90;;;;;;5012830;28;20452;-75
2022/03/20 08:34:02;;;;;;;1.33;1.20;;;9.50;99.90;;;;;;5016525;28;20519;-75
2022/03/20 08:36:32;;;;;;;0.60;0.10;;;9.60;99.90;;;;;;5014315;28;20464;-73
2022/03/20 08:39:00;;;;;;;4.10;2.97;;;9.60;99.90;;;;;;5010246;28;20922;-74
2022/03/20 08:41:28;;;;;;;0.60;0.10;;;9.70;99.90;;;;;;5014479;28;20527;-73
2022/03/20 08:43:56;;;;;;;4.00;1.27;;;9.70;99.90;;;;;;5011733;28;20450;-74
2022/03/20 08:46:24;;;;;;;0.60;0.10;;;9.70;99.90;;;;;;5001397;28;20460;-74
2022/03/20 08:48:52;;;;;;;0.60;0.10;;;9.80;99.90;;;;;;5001730;28;20895;-74
2022/03/20 08:51:20;;;;;;;0.60;0.20;;;9.90;99.90;;;;;;5015643;28;20440;-74
2022/03/20 08:53:50;;;;;;;4.20;3.63;;;9.90;99.90;;;;;;5020061;28;20469;-75
2022/03/20 08:56:18;;;;;;;0.87;0.47;;;10.00;99.90;;;;;;5013232;28;20464;-74
2022/03/20 08:58:48;;;;;;;0.60;0.10;;;10.20;99.90;;;;;;5010807;28;20444;-73
2022/03/20 09:01:21;;;;;;;0.60;0.10;;;10.20;99.90;;;;;;5013260;28;21865;-73
2022/03/20 09:03:50;;;;;;;0.60;0.10;;;10.30;99.90;;;;;;5013699;28;20961;-71
2022/03/20 09:06:19;;;;;;;0.60;0.20;;;10.40;99.90;;;;;;5009666;28;20474;-72
2022/03/20 09:08:49;;;;;;;0.60;0.30;;;10.40;99.90;;;;;;4994104;28;20528;-73
2022/03/20 09:11:18;;;;;;;0.60;0.10;;;10.50;99.90;;;;;;5008123;28;20558;-72
2022/03/20 09:13:46;;;;;;;0.60;0.20;;;10.50;99.90;;;;;;5004797;28;20480;-74
2022/03/20 09:19:03;;;;;;;1.37;0.57;;;10.60;99.90;;;;;;4992817;28;20449;-75
2022/03/20 09:21:33;;;;;;;0.60;0.20;;;10.70;99.90;;;;;;4991700;28;20473;-73
2022/03/20 09:24:04;;;;;;;0.80;0.53;;;10.60;99.90;;;;;;4992439;28;20445;-74
2022/03/20 09:26:33;;;;;;;0.60;0.20;;;10.70;99.90;;;;;;5020159;28;20990;-75
2022/03/20 09:29:01;;;;;;;0.60;0.10;;;10.80;99.90;;;;;;5011839;28;20452;-72
2022/03/20 09:31:31;;;;;;;0.60;0.10;;;10.90;99.90;;;;;;5010837;28;20543;-74
2022/03/20 09:34:00;;;;;;;2.30;2.20;;;10.90;99.90;;;;;;5005544;28;20529;-74
2022/03/20 09:36:29;;;;;;;0.70;0.47;;;11.00;99.90;;;;;;5003786;28;20506;-73
2022/03/20 09:38:57;;;;;;;0.70;0.60;;;11.10;99.90;;;;;;5013648;28;20531;-75
2022/03/20 09:41:31;;;;;;;0.60;0.13;;;11.10;99.90;;;;;;5015973;28;20448;-73
2022/03/20 09:43:59;;;;;;;0.60;0.10;;;11.10;99.90;;;;;;5023048;28;20450;-74
2022/03/20 09:46:27;;;;;;;0.60;0.10;;;11.20;99.90;;;;;;5000458;28;20496;-73
2022/03/20 09:48:56;;;;;;;0.60;0.10;;;11.20;99.90;;;;;;5007752;28;20451;-72
2022/03/20 09:51:24;;;;;;;1.17;1.07;;;11.30;99.90;;;;;;5029595;28;20525;-75
2022/03/20 09:53:53;;;;;;;4.20;3.60;;;11.30;99.90;;;;;;5023198;28;20480;-75
2022/03/20 09:56:21;;;;;;;2.70;0.90;;;11.40;99.90;;;;;;5015332;28;20543;-74
2022/03/20 09:58:50;;;;;;;0.60;0.20;;;11.40;99.90;;;;;;5015819;28;20448;-76
2022/03/20 10:01:18;;;;;;;0.60;0.10;;;11.40;99.90;;;;;;5016148;28;20590;-76
2022/03/20 10:03:47;;;;;;;0.60;0.20;;;11.50;99.90;;;;;;5024167;28;20506;-77
2022/03/20 10:06:16;;;;;;;0.60;0.10;;;11.60;99.90;;;;;;5002654;28;20470;-77
2022/03/20 10:09:04;;;;;;;0.60;0.20;;;11.80;99.90;;;;;;5010124;28;20461;-75
2022/03/20 10:11:33;;;;;;;0.60;0.10;;;11.80;99.90;;;;;;5012245;28;20464;-76
2022/03/20 10:14:15;;;;;;;0.60;0.10;;;11.80;99.90;;;;;;5025906;28;20514;-76
2022/03/20 10:16:44;;;;;;;0.70;0.53;;;11.80;99.90;;;;;;5015153;28;20706;-76
2022/03/20 10:19:29;;;;;;;0.77;0.30;;;12.00;99.90;;;;;;5023686;28;20825;-76
2022/03/20 10:22:00;;;;;;;0.60;0.10;;;12.00;99.90;;;;;;5018833;28;20456;-74
2022/03/20 10:24:30;;;;;;;0.70;0.57;;;12.20;99.90;;;;;;5010093;28;20464;-75
2022/03/20 10:27:14;;;;;;;30.13;2.77;;;12.20;99.90;;;;;;5009781;28;20460;-75
2022/03/20 10:29:54;;;;;;;0.70;0.60;;;12.50;99.90;;;;;;5013456;28;20456;-76
2022/03/20 10:32:24;;;;;;;2.30;2.20;;;12.50;99.90;;;;;;5023712;28;20440;-76
2022/03/20 10:34:54;;;;;;;1.23;1.13;;;12.60;99.90;;;;;;5032709;28;20495;-74
2022/03/20 10:37:49;;;;;;;0.60;0.10;;;12.60;99.90;;;;;;5012056;28;20448;-76
2022/03/20 10:40:20;;;;;;;0.60;0.10;;;12.70;99.90;;;;;;5024124;28;20810;-75
2022/03/20 10:43:10;;;;;;;0.60;0.10;;;12.80;99.90;;;;;;5032728;28;20515;-76
2022/03/20 10:46:00;;;;;;;0.60;0.20;;;13.00;99.90;;;;;;5010824;28;20836;-75
2022/03/20 10:48:34;;;;;;;0.60;0.10;;;13.10;99.90;;;;;;5030647;28;20447;-75
2022/03/20 10:51:03;;;;;;;0.60;0.10;;;13.30;99.90;;;;;;5014383;28;20441;-73
2022/03/20 10:53:31;;;;;;;2.30;2.20;;;13.30;99.90;;;;;;5022785;28;20507;-77
2022/03/20 10:56:06;;;;;;;1.23;1.13;;;13.40;99.90;;;;;;5025086;28;20469;-76
2022/03/20 10:58:39;;;;;;;0.60;0.27;;;13.60;99.90;;;;;;5024594;28;20549;-75
2022/03/20 11:01:09;;;;;;;0.70;0.50;;;13.60;99.90;;;;;;5009992;28;20991;-74
2022/03/20 11:03:39;;;;;;;0.60;0.20;;;13.70;99.90;;;;;;5004725;28;20688;-77
2022/03/20 11:06:08;;;;;;;4.33;4.03;;;13.70;99.90;;;;;;5015300;28;20516;-75
2022/03/20 11:08:37;;;;;;;0.60;0.10;;;13.80;99.90;;;;;;5033191;28;20531;-76
2022/03/20 11:11:06;;;;;;;0.90;0.47;;;14.00;99.90;;;;;;5036462;28;20457;-74
2022/03/20 11:13:35;;;;;;;1.07;0.97;;;14.00;99.90;;;;;;5029144;28;20554;-73
2022/03/20 11:16:06;;;;;;;0.60;0.20;;;14.00;99.90;;;;;;5014155;28;20481;-74
2022/03/20 11:18:39;;;;;;;1.53;1.10;;;14.00;99.90;;;;;;5015734;28;20473;-75
2022/03/20 11:21:08;;;;;;;5.80;5.30;;;14.00;99.90;;;;;;5014172;28;20463;-74
2022/03/20 11:23:37;;;;;;;1.70;1.30;;;14.10;99.90;;;;;;5006879;28;20468;-75
2022/03/20 11:26:07;;;;;;;1.03;0.57;;;14.20;99.90;;;;;;5006770;28;20475;-75
2022/03/20 11:28:43;;;;;;;11.00;10.07;;;14.30;99.90;;;;;;5002212;28;20540;-72
2022/03/20 11:31:13;;;;;;;0.60;0.20;;;14.30;99.90;;;;;;5009645;28;20923;-75
2022/03/20 11:33:44;;;;;;;1.20;1.03;;;14.40;99.90;;;;;;5016253;28;20476;-74
2022/03/20 11:36:17;;;;;;;8.40;4.67;;;14.60;99.90;;;;;;4995866;28;20560;-74
2022/03/20 11:39:11;;;;;;;0.60;0.10;;;14.60;99.90;;;;;;4996895;28;20453;-76
2022/03/20 11:41:40;;;;;;;0.60;0.10;;;14.60;99.90;;;;;;5001146;28;20468;-76
2022/03/20 11:44:20;;;;;;;3.53;2.33;;;14.80;99.90;;;;;;4994042;28;20819;-73
2022/03/20 11:47:08;;;;;;;0.60;0.10;;;14.80;99.90;;;;;;5010236;28;20471;-73
2022/03/20 11:49:40;;;;;;;0.60;0.10;;;14.90;99.90;;;;;;5013491;28;20548;-76
2022/03/20 11:52:11;;;;;;;0.60;0.20;;;14.90;99.90;;;;;;5016249;28;21833;-73
2022/03/20 11:54:55;;;;;;;0.60;0.10;;;14.90;99.90;;;;;;5011561;28;20509;-75
2022/03/20 11:57:41;;;;;;;0.60;0.10;;;14.90;99.90;;;;;;5016346;28;20982;-76
2022/03/20 12:00:15;;;;;;;0.60;0.10;;;15.00;99.90;;;;;;5019174;28;20450;-76
2022/03/20 12:03:09;;;;;;;1.47;1.37;;;15.00;99.90;;;;;;5005323;28;20454;-77
2022/03/20 12:05:51;;;;;;;1.17;1.07;;;15.00;99.90;;;;;;5011099;28;20478;-75
2022/03/20 12:08:36;;;;;;;0.60;0.10;;;15.00;99.90;;;;;;5008304;28;20536;-74
2022/03/20 12:11:18;;;;;;;4.10;0.83;;;15.00;99.90;;;;;;5002784;28;20452;-75
2022/03/20 12:13:55;;;;;;;1.07;0.60;;;14.90;99.90;;;;;;5012349;28;20575;-74
2022/03/20 12:16:54;;;;;;;4.43;1.60;;;14.80;99.90;;;;;;5011770;28;20489;-74
2022/03/20 12:19:24;;;;;;;0.60;0.30;;;14.80;99.90;;;;;;5018202;28;20860;-77
2022/03/20 12:22:00;;;;;;;0.60;0.17;;;14.80;99.90;;;;;;5023806;28;20450;-77
2022/03/20 12:24:54;;;;;;;0.60;0.20;;;14.70;99.90;;;;;;5020233;28;20454;-76
2022/03/20 12:27:45;;;;;;;0.60;0.10;;;14.70;99.90;;;;;;5016097;28;20472;-76
2022/03/20 12:30:36;;;;;;;2.97;2.67;;;14.70;99.90;;;;;;5017882;28;20448;-77
2022/03/20 12:33:21;;;;;;;0.60;0.10;;;14.60;99.90;;;;;;5015006;28;21152;-75
2022/03/20 12:35:50;;;;;;;0.60;0.10;;;14.60;99.90;;;;;;5013256;28;21185;-76
2022/03/20 12:38:49;;;;;;;0.60;0.47;;;14.50;99.90;;;;;;5021157;28;20544;-77
2022/03/20 12:41:20;;;;;;;0.60;0.10;;;14.50;99.90;;;;;;5007981;28;20458;-76
2022/03/20 12:43:59;;;;;;;0.60;0.20;;;14.50;99.90;;;;;;5018967;28;20992;-77
2022/03/20 12:46:28;;;;;;;0.60;0.10;;;14.50;99.90;;;;;;5015829;28;20459;-76
2022/03/20 12:48:57;;;;;;;0.60;0.10;;;14.50;99.90;;;;;;5004770;28;20879;-76
2022/03/20 12:51:36;;;;;;;0.60;0.10;;;14.60;99.90;;;;;;5010532;28;20440;-78
2022/03/20 12:54:16;;;;;;;0.60;0.10;;;14.80;99.90;;;;;;5013895;28;20593;-76
2022/03/20 12:56:55;;;;;;;0.60;0.10;;;14.80;99.90;;;;;;5015522;28;20483;-77
2022/03/20 12:59:25;;;;;;;0.60;0.10;;;15.00;99.90;;;;;;5016295;28;20452;-74
2022/03/20 13:01:54;;;;;;;0.83;0.83;;;15.10;99.90;;;;;;5016817;28;20449;-76
2022/03/20 13:04:23;;;;;;;0.60;0.10;;;15.40;99.90;;;;;;5013132;28;20456;-75
2022/03/20 13:06:52;;;;;;;0.60;0.20;;;15.40;99.90;;;;;;5024624;28;20939;-76
2022/03/20 13:09:21;;;;;;;0.60;0.10;;;15.60;99.90;;;;;;5029287;28;20443;-76
2022/03/20 13:11:51;;;;;;;0.60;0.10;;;;;;;;;;5021203;28;20515;-74
2022/03/20 13:14:21;;;;;;;4.27;4.07;;;15.70;99.90;;;;;;5034738;28;20563;-75
2022/03/20 13:16:51;;;;;;;2.60;2.50;;;15.70;99.90;;;;;;5032987;28;20488;-76
2022/03/20 13:19:34;;;;;;;0.60;0.10;;;15.90;99.90;;;;;;5013534;28;20441;-75
2022/03/20 13:22:06;;;;;;;0.60;0.10;;;15.90;99.90;;;;;;5013309;28;20451;-75
2022/03/20 13:24:38;;;;;;;0.60;0.17;;;16.10;99.90;;;;;;5020982;28;20569;-76
2022/03/20 13:27:07;;;;;;;0.60;0.10;;;16.10;99.90;;;;;;5029721;28;20464;-69
2022/03/20 13:29:40;;;;;;;0.60;0.10;;;16.40;99.90;;;;;;5029496;28;20447;-77
2022/03/20 13:32:12;;;;;;;0.60;0.10;;;16.40;99.90;;;;;;5030700;28;20442;-76
2022/03/20 13:34:43;;;;;;;0.60;0.10;;;16.60;99.90;;;;;;5024397;28;20574;-77
2022/03/20 13:37:13;;;;;;;0.60;0.10;;;16.60;99.90;;;;;;5017373;28;20471;-75
2022/03/20 13:39:50;;;;;;;0.60;0.10;;;16.80;99.90;;;;;;5014200;28;20476;-76
2022/03/20 13:42:20;;;;;;;2.00;1.70;;;16.70;99.90;;;;;;5025483;28;20458;-76
2022/03/20 13:44:52;;;;;;;11.07;4.47;;;16.80;99.90;;;;;;5017406;28;20473;-77